Time;durP1;ratioP1;P1;durP2;ratioP2;P2;SDS_P1;SDS_P2;PMS_P1;PMS_P2;Temp;Humidity;BMP_temperature;BMP_pressure;BME280_temperature;BME280_humidity;BME280_pressure;Samples;Min_cycle;Max_cycle;Signal;HPM_P1;HPM_P2
2022/09/11 00:00:38;;;;;;;39.03;14.43;;;22.50;69.10;;;;;;5113881;28;20488;-75
2022/09/11 00:03:03;;;;;;;31.40;13.35;;;22.50;69.10;;;;;;5114815;28;20110;-75
2022/09/11 00:05:30;;;;;;;31.67;13.73;;;22.50;69.20;;;;;;5113802;28;20053;-75
2022/09/11 00:07:56;;;;;;;35.65;13.15;;;22.50;69.20;;;;;;5115024;27;20024;-75
2022/09/11 00:10:23;;;;;;;35.42;13.32;;;22.50;69.10;;;;;;5113722;28;20011;-76
2022/09/11 00:12:49;;;;;;;35.03;13.93;;;22.50;69.20;;;;;;5114612;28;20376;-76
2022/09/11 00:15:15;;;;;;;31.90;13.07;;;22.50;69.20;;;;;;5114719;28;20015;-75
2022/09/11 00:17:41;;;;;;;34.90;12.38;;;22.50;69.20;;;;;;5076482;28;20036;-75
2022/09/11 00:20:07;;;;;;;29.40;12.95;;;22.50;69.10;;;;;;5072837;28;20081;-75
2022/09/11 00:22:32;;;;;;;32.70;12.88;;;22.50;69.30;;;;;;5074379;28;20065;-75
2022/09/11 00:24:58;;;;;;;34.50;12.88;;;22.50;69.40;;;;;;5073865;28;20403;-76
2022/09/11 00:27:24;;;;;;;35.13;13.05;;;22.50;69.30;;;;;;5073652;28;20543;-76
2022/09/11 00:29:50;;;;;;;31.15;13.07;;;22.50;69.30;;;;;;5082435;28;20428;-76
2022/09/11 00:32:15;;;;;;;32.95;13.73;;;22.50;69.30;;;;;;5113321;28;20421;-75
2022/09/11 00:34:41;;;;;;;29.77;11.95;;;22.50;69.30;;;;;;5113471;28;20107;-75
2022/09/11 00:37:08;;;;;;;32.00;13.30;;;22.50;69.30;;;;;;5114390;28;20024;-75
2022/09/11 00:39:33;;;;;;;31.02;12.88;;;22.50;69.30;;;;;;5113148;28;20030;-75
2022/09/11 00:41:59;;;;;;;33.58;13.15;;;22.50;69.30;;;;;;5113941;28;20094;-75
2022/09/11 00:44:26;;;;;;;30.25;13.30;;;22.50;69.30;;;;;;5113240;28;20407;-76
2022/09/11 00:47:02;;;;;;;30.85;12.52;;;22.50;69.30;;;;;;5114066;28;20478;-75
2022/09/11 00:49:40;;;;;;;33.20;12.32;;;22.50;69.30;;;;;;5096041;28;20046;-75
2022/09/11 00:52:21;;;;;;;33.13;12.90;;;22.50;69.30;;;;;;5114164;28;20016;-75
2022/09/11 00:54:56;;;;;;;31.33;11.73;;;22.50;69.40;;;;;;5113168;28;20047;-75
2022/09/11 00:57:24;;;;;;;27.10;12.07;;;22.50;69.50;;;;;;5112964;28;20023;-75
2022/09/11 00:59:49;;;;;;;35.13;12.63;;;22.50;69.50;;;;;;5113796;27;20442;-75
2022/09/11 01:02:17;;;;;;;31.40;12.32;;;22.50;69.40;;;;;;5112679;28;20022;-76
2022/09/11 01:04:43;;;;;;;34.33;11.80;;;22.50;69.40;;;;;;5095954;28;20034;-75
2022/09/11 01:07:09;;;;;;;30.90;11.77;;;22.50;69.40;;;;;;5095543;28;20020;-75
2022/09/11 01:09:35;;;;;;;28.77;12.13;;;22.50;69.40;;;;;;5112382;28;20024;-76
2022/09/11 01:12:12;;;;;;;28.25;11.95;;;22.50;69.40;;;;;;5113678;28;20065;-76
2022/09/11 01:14:53;;;;;;;28.42;12.35;;;22.40;70.40;;;;;;5113527;28;20028;-76
2022/09/11 01:17:54;;;;;;;26.35;10.38;;;22.50;69.50;;;;;;5065055;28;20031;-75
2022/09/11 01:20:27;;;;;;;24.48;11.48;;;22.40;69.40;;;;;;5071905;28;20070;-76
2022/09/11 01:23:30;;;;;;;27.23;10.70;;;22.50;69.50;;;;;;5072820;28;20030;-75
2022/09/11 01:26:25;;;;;;;28.17;11.40;;;22.50;69.50;;;;;;5050282;28;20048;-75
2022/09/11 01:29:04;;;;;;;30.38;11.98;;;22.40;69.40;;;;;;4971777;28;20042;-75
2022/09/11 01:31:32;;;;;;;27.30;10.77;;;22.40;69.40;;;;;;5006373;28;20135;-75
2022/09/11 01:34:13;;;;;;;27.25;11.55;;;22.40;69.50;;;;;;4994613;28;20113;-75
2022/09/11 01:36:43;;;;;;;26.05;11.13;;;22.40;69.50;;;;;;4994516;28;20054;-75
2022/09/11 01:39:09;;;;;;;27.50;12.82;;;22.40;69.50;;;;;;4994445;28;20029;-75
2022/09/11 01:42:00;;;;;;;27.40;11.27;;;22.40;69.50;;;;;;4994439;28;20029;-75
2022/09/11 01:44:28;;;;;;;25.48;11.73;;;22.40;69.60;;;;;;4994463;28;20088;-75
2022/09/11 01:46:54;;;;;;;26.70;10.75;;;22.40;69.60;;;;;;4994239;28;20459;-76
2022/09/11 01:49:37;;;;;;;28.17;11.38;;;22.40;69.60;;;;;;4994149;28;20048;-76
2022/09/11 01:52:07;;;;;;;26.92;10.88;;;22.40;69.60;;;;;;4994216;28;20103;-76
2022/09/11 01:54:51;;;;;;;23.60;10.75;;;22.40;69.70;;;;;;4994197;28;20030;-75
2022/09/11 01:57:30;;;;;;;24.20;9.98;;;22.50;69.70;;;;;;4996707;28;20038;-75
2022/09/11 01:59:58;;;;;;;29.02;11.65;;;22.40;69.70;;;;;;4995553;28;20116;-76
2022/09/11 02:02:34;;;;;;;23.73;10.85;;;22.40;69.70;;;;;;5015977;28;20049;-75
2022/09/11 02:05:00;;;;;;;24.67;10.77;;;22.40;69.70;;;;;;5026559;28;20042;-75
2022/09/11 02:07:39;;;;;;;22.85;10.73;;;22.40;69.80;;;;;;5111924;28;20024;-76
2022/09/11 02:10:13;;;;;;;23.23;10.57;;;22.40;69.80;;;;;;5096092;28;20012;-75
2022/09/11 02:12:42;;;;;;;23.50;10.10;;;22.40;69.80;;;;;;5111702;28;20023;-75
2022/09/11 02:15:08;;;;;;;26.77;10.95;;;22.40;69.80;;;;;;5111402;28;20020;-75
2022/09/11 02:17:42;;;;;;;26.33;11.30;;;22.40;69.80;;;;;;5058999;28;20021;-75
2022/09/11 02:20:08;;;;;;;25.38;10.35;;;22.40;69.80;;;;;;5070914;28;20055;-75
2022/09/11 02:22:35;;;;;;;24.27;10.65;;;22.40;69.80;;;;;;5070949;28;20028;-75
2022/09/11 02:25:01;;;;;;;25.98;10.15;;;22.40;69.90;;;;;;5072064;28;20392;-75
2022/09/11 02:27:29;;;;;;;24.73;10.48;;;22.40;69.90;;;;;;5070847;28;20028;-75
2022/09/11 02:29:55;;;;;;;26.15;10.02;;;22.40;69.80;;;;;;5079216;28;20016;-76
2022/09/11 02:32:21;;;;;;;25.13;10.30;;;22.40;69.90;;;;;;5090960;28;20163;-76
2022/09/11 02:34:47;;;;;;;19.95;9.93;;;22.40;69.80;;;;;;5091233;28;20113;-75
2022/09/11 02:37:35;;;;;;;26.08;10.15;;;22.40;69.90;;;;;;5090571;28;20509;-75
2022/09/11 02:40:09;;;;;;;24.15;10.25;;;22.40;69.80;;;;;;5075453;28;20020;-75
2022/09/11 02:42:56;;;;;;;23.30;10.40;;;22.40;70.00;;;;;;5092236;28;20036;-66
2022/09/11 02:45:40;;;;;;;22.95;9.93;;;22.40;70.00;;;;;;5092100;28;20067;-67
2022/09/11 02:48:27;;;;;;;19.80;9.65;;;22.40;70.00;;;;;;5090623;28;20048;-67
2022/09/11 02:51:00;;;;;;;24.60;9.48;;;22.40;70.10;;;;;;5090809;28;20391;-67
2022/09/11 02:53:34;;;;;;;25.58;10.32;;;22.40;70.00;;;;;;5074442;28;20016;-67
2022/09/11 02:56:38;;;;;;;19.02;8.90;;;22.40;70.10;;;;;;5090608;28;20569;-67
2022/09/11 02:59:08;;;;;;;21.05;9.85;;;22.40;70.00;;;;;;5091889;28;20502;-67
2022/09/11 03:01:50;;;;;;;22.35;9.80;;;22.40;70.10;;;;;;5074525;28;20034;-67
2022/09/11 03:04:17;;;;;;;22.67;9.30;;;22.40;70.10;;;;;;5090660;28;20020;-67
2022/09/11 03:06:43;;;;;;;17.55;8.68;;;22.40;70.10;;;;;;5090427;28;20043;-67
2022/09/11 03:09:09;;;;;;;23.58;9.73;;;22.40;70.20;;;;;;5090646;28;20024;-67
2022/09/11 03:11:35;;;;;;;22.00;9.85;;;22.40;70.10;;;;;;5091906;28;20020;-67
2022/09/11 03:14:00;;;;;;;20.95;9.20;;;22.40;70.10;;;;;;5090715;28;20034;-67
2022/09/11 03:16:26;;;;;;;21.55;9.50;;;22.40;70.20;;;;;;5083219;28;20067;-67
2022/09/11 03:18:52;;;;;;;21.35;9.40;;;22.40;70.20;;;;;;5074428;28;20021;-67
2022/09/11 03:21:17;;;;;;;20.10;8.88;;;22.40;70.10;;;;;;5075015;28;20079;-67
2022/09/11 03:23:43;;;;;;;19.83;8.93;;;22.40;70.20;;;;;;5075232;28;20024;-67
2022/09/11 03:26:09;;;;;;;26.23;9.40;;;22.40;70.20;;;;;;5075100;28;20035;-67
2022/09/11 03:28:35;;;;;;;22.60;8.80;;;22.40;70.20;;;;;;5074879;28;20063;-67
2022/09/11 03:31:00;;;;;;;17.38;8.95;;;22.40;70.20;;;;;;5103412;28;20121;-67
2022/09/11 03:33:26;;;;;;;19.42;9.02;;;22.40;70.20;;;;;;5115963;28;20023;-67
2022/09/11 03:35:52;;;;;;;19.60;8.88;;;22.40;70.20;;;;;;5097233;28;20028;-67
2022/09/11 03:38:18;;;;;;;19.52;8.73;;;22.40;70.20;;;;;;5114307;28;20065;-67
2022/09/11 03:40:44;;;;;;;21.08;9.25;;;22.30;70.20;;;;;;5115552;28;20023;-67
2022/09/11 03:43:11;;;;;;;17.85;8.50;;;22.40;70.30;;;;;;5115148;28;20094;-67
2022/09/11 03:45:37;;;;;;;18.60;7.80;;;22.40;70.30;;;;;;5114190;28;20396;-67
2022/09/11 03:48:05;;;;;;;22.15;8.98;;;22.30;70.30;;;;;;5115364;28;20440;-66
2022/09/11 03:50:31;;;;;;;20.58;8.50;;;22.30;70.20;;;;;;5115230;28;20309;-67
2022/09/11 03:52:57;;;;;;;20.75;8.77;;;22.40;70.30;;;;;;5115242;28;20095;-67
2022/09/11 03:55:22;;;;;;;18.85;8.00;;;22.30;70.20;;;;;;5113744;28;20028;-67
2022/09/11 03:57:48;;;;;;;19.92;8.30;;;22.30;70.20;;;;;;5114089;28;20024;-67
2022/09/11 04:00:14;;;;;;;17.48;8.45;;;22.30;70.20;;;;;;5115170;28;20098;-67
2022/09/11 04:02:40;;;;;;;16.85;8.55;;;22.30;70.30;;;;;;5114114;28;20031;-67
2022/09/11 04:05:07;;;;;;;15.30;7.95;;;22.30;70.30;;;;;;5114714;28;20024;-67
2022/09/11 04:07:33;;;;;;;19.92;7.65;;;22.30;70.20;;;;;;5113640;28;20063;-67
2022/09/11 04:09:59;;;;;;;20.35;8.27;;;22.30;70.30;;;;;;5113981;28;20051;-67
2022/09/11 04:12:25;;;;;;;17.45;8.48;;;22.40;70.30;;;;;;5096040;28;20102;-67
2022/09/11 04:14:50;;;;;;;17.20;8.18;;;22.30;70.30;;;;;;5094304;28;20034;-67
2022/09/11 04:17:16;;;;;;;17.90;8.35;;;22.30;70.40;;;;;;5081110;28;20040;-67
2022/09/11 04:19:42;;;;;;;21.33;8.90;;;22.30;70.40;;;;;;5071299;28;20028;-67
2022/09/11 04:22:07;;;;;;;18.83;7.68;;;22.30;70.40;;;;;;5070239;28;20431;-67
2022/09/11 04:24:33;;;;;;;17.52;7.72;;;22.30;70.40;;;;;;5071685;28;20024;-67
2022/09/11 04:26:59;;;;;;;15.45;7.82;;;22.30;70.40;;;;;;5070639;28;20052;-67
2022/09/11 04:29:25;;;;;;;17.83;6.80;;;22.30;70.50;;;;;;5073912;28;20048;-67
2022/09/11 04:31:51;;;;;;;18.83;9.30;;;22.30;70.50;;;;;;5112271;28;20023;-67
2022/09/11 04:34:17;;;;;;;17.40;7.97;;;22.30;70.50;;;;;;5113597;28;20020;-67
2022/09/11 04:36:43;;;;;;;21.17;8.82;;;22.30;70.50;;;;;;5114401;28;20433;-67
2022/09/11 04:39:08;;;;;;;22.58;8.30;;;22.30;70.50;;;;;;5113264;28;20023;-67
2022/09/11 04:41:34;;;;;;;19.10;7.72;;;22.30;70.50;;;;;;5112961;28;20034;-67
2022/09/11 04:44:00;;;;;;;17.45;8.10;;;22.30;70.50;;;;;;5114259;28;20051;-67
2022/09/11 04:46:26;;;;;;;28.98;8.73;;;22.30;70.60;;;;;;5094733;28;20034;-67
2022/09/11 04:48:54;;;;;;;15.05;7.60;;;22.30;70.60;;;;;;5093363;28;20127;-67
2022/09/11 04:51:26;;;;;;;18.77;7.93;;;22.30;70.60;;;;;;5092511;28;20035;-67
2022/09/11 04:53:56;;;;;;;18.02;8.15;;;22.30;70.60;;;;;;5094063;28;20032;-67
2022/09/11 04:56:22;;;;;;;18.10;7.93;;;22.30;70.60;;;;;;5093786;28;20020;-67
2022/09/11 04:58:55;;;;;;;15.77;7.30;;;22.30;70.60;;;;;;5091833;28;20024;-67
2022/09/11 05:01:21;;;;;;;16.35;7.63;;;22.30;70.70;;;;;;5090581;28;20028;-67
2022/09/11 05:03:47;;;;;;;15.95;7.63;;;22.30;70.60;;;;;;5092445;28;20028;-67
2022/09/11 05:06:15;;;;;;;14.60;7.05;;;22.30;70.60;;;;;;5093230;28;20543;-67
2022/09/11 05:08:44;;;;;;;16.90;7.10;;;22.30;70.60;;;;;;5092427;28;20480;-67
2022/09/11 05:11:14;;;;;;;16.73;7.22;;;22.30;70.60;;;;;;5093162;28;20016;-67
2022/09/11 05:13:40;;;;;;;15.27;7.15;;;22.30;70.70;;;;;;5091056;28;20054;-67
2022/09/11 05:16:10;;;;;;;16.13;7.90;;;22.30;70.60;;;;;;5086531;28;20032;-67
2022/09/11 05:18:37;;;;;;;19.02;7.35;;;22.20;70.60;;;;;;5072000;28;20032;-67
2022/09/11 05:21:04;;;;;;;14.52;6.75;;;22.20;70.60;;;;;;5072172;28;20020;-67
2022/09/11 05:23:31;;;;;;;18.98;7.22;;;22.30;70.60;;;;;;5073258;28;20025;-67
2022/09/11 05:25:58;;;;;;;13.70;6.57;;;22.20;70.60;;;;;;5073341;28;20025;-67
2022/09/11 05:28:25;;;;;;;17.08;7.07;;;22.20;70.60;;;;;;5072911;28;20560;-67
2022/09/11 05:30:52;;;;;;;17.23;7.13;;;22.20;70.60;;;;;;5097048;28;20027;-66
2022/09/11 05:33:18;;;;;;;13.90;6.93;;;22.20;70.60;;;;;;5113734;28;20054;-67
2022/09/11 05:35:43;;;;;;;16.52;6.85;;;22.20;70.60;;;;;;5113667;28;20506;-67
2022/09/11 05:38:11;;;;;;;14.90;7.13;;;22.20;70.70;;;;;;5113611;28;20110;-67
2022/09/11 05:40:47;;;;;;;15.82;6.88;;;22.20;70.70;;;;;;5113528;28;20058;-67
2022/09/11 05:43:14;;;;;;;16.38;7.38;;;22.20;70.70;;;;;;5111913;28;20034;-67
2022/09/11 05:45:41;;;;;;;13.90;7.15;;;22.20;70.70;;;;;;5112169;28;20015;-67
2022/09/11 05:48:07;;;;;;;15.32;7.50;;;22.20;70.70;;;;;;5112377;28;20105;-67
2022/09/11 05:50:33;;;;;;;16.98;7.00;;;22.20;70.70;;;;;;5113574;28;20086;-66
2022/09/11 05:52:59;;;;;;;16.60;6.90;;;22.20;70.70;;;;;;5113299;28;20047;-67
2022/09/11 05:55:25;;;;;;;14.32;6.88;;;22.20;70.80;;;;;;5112343;28;20019;-67
2022/09/11 05:57:51;;;;;;;15.10;7.15;;;22.20;70.70;;;;;;5105370;28;20070;-67
2022/09/11 06:00:17;;;;;;;14.32;7.20;;;22.20;70.70;;;;;;5091119;28;20487;-67
2022/09/11 06:02:44;;;;;;;14.98;6.90;;;22.20;70.70;;;;;;5092578;28;20058;-67
2022/09/11 06:05:09;;;;;;;14.02;6.95;;;22.20;70.80;;;;;;5092512;28;20023;-67
2022/09/11 06:07:35;;;;;;;15.45;7.60;;;22.20;70.70;;;;;;5091093;28;20028;-67
2022/09/11 06:10:01;;;;;;;14.30;6.80;;;22.20;70.70;;;;;;5092592;28;20023;-67
2022/09/11 06:12:27;;;;;;;12.20;6.18;;;22.20;70.70;;;;;;5092362;28;20053;-67
2022/09/11 06:14:53;;;;;;;17.38;7.07;;;22.20;70.70;;;;;;5092278;28;20383;-67
2022/09/11 06:17:20;;;;;;;14.48;6.68;;;22.20;70.70;;;;;;5075228;28;20401;-67
2022/09/11 06:19:46;;;;;;;13.18;6.32;;;22.20;70.70;;;;;;5072199;28;20023;-67
2022/09/11 06:22:12;;;;;;;13.75;6.18;;;22.20;70.70;;;;;;5072246;28;20036;-67
2022/09/11 06:24:37;;;;;;;11.75;6.32;;;22.20;70.70;;;;;;5072148;28;20024;-67
2022/09/11 06:27:03;;;;;;;15.82;6.65;;;22.20;70.70;;;;;;5072002;28;20028;-67
2022/09/11 06:29:31;;;;;;;14.70;5.90;;;22.20;70.70;;;;;;5074441;28;20024;-67
2022/09/11 06:31:57;;;;;;;12.68;6.60;;;22.20;70.80;;;;;;5111529;28;20016;-67
2022/09/11 06:34:23;;;;;;;16.80;6.50;;;22.20;70.80;;;;;;5094463;28;20076;-67
2022/09/11 06:36:49;;;;;;;13.32;6.25;;;22.20;70.80;;;;;;5111513;28;20028;-67
2022/09/11 06:39:15;;;;;;;11.15;5.93;;;22.20;70.80;;;;;;5112491;28;20027;-67
2022/09/11 06:41:41;;;;;;;15.00;6.95;;;22.10;71.90;;;;;;5111366;28;20162;-67
2022/09/11 06:44:08;;;;;;;12.57;5.75;;;22.20;70.90;;;;;;5112261;28;20495;-67
2022/09/11 06:46:34;;;;;;;11.05;5.85;;;22.20;71.90;;;;;;5112228;28;20054;-67
2022/09/11 06:49:01;;;;;;;12.55;6.00;;;22.10;70.90;;;;;;5111132;28;20039;-67
2022/09/11 06:51:27;;;;;;;11.77;6.13;;;22.10;70.90;;;;;;5112488;28;20028;-67
2022/09/11 06:53:56;;;;;;;17.10;6.30;;;22.10;70.90;;;;;;5115372;28;20064;-67
2022/09/11 06:56:22;;;;;;;12.80;6.47;;;22.10;70.90;;;;;;5115077;28;20495;-67
2022/09/11 06:58:49;;;;;;;13.25;6.00;;;22.10;70.90;;;;;;5116232;28;20043;-67
2022/09/11 07:01:18;;;;;;;11.32;5.72;;;22.10;70.90;;;;;;5116349;28;20023;-67
2022/09/11 07:03:44;;;;;;;11.43;5.82;;;22.10;70.90;;;;;;5116140;28;20020;-67
2022/09/11 07:06:11;;;;;;;12.13;5.60;;;22.10;70.90;;;;;;5116223;28;20479;-67
2022/09/11 07:08:38;;;;;;;10.05;5.80;;;22.10;70.90;;;;;;5114911;28;20376;-67
2022/09/11 07:11:04;;;;;;;12.30;5.60;;;22.10;70.90;;;;;;5116299;28;20106;-67
2022/09/11 07:13:31;;;;;;;11.70;5.38;;;22.10;70.90;;;;;;5115838;28;20026;-67
2022/09/11 07:16:00;;;;;;;14.45;6.35;;;22.10;70.90;;;;;;5107330;28;20549;-67
2022/09/11 07:18:40;;;;;;;12.13;5.47;;;22.10;70.90;;;;;;5073995;28;20111;-67
2022/09/11 07:21:17;;;;;;;11.68;5.60;;;22.10;70.90;;;;;;5075295;28;20027;-67
2022/09/11 07:23:49;;;;;;;12.43;5.90;;;22.10;70.90;;;;;;5075163;28;20025;-67
2022/09/11 07:26:15;;;;;;;10.63;5.82;;;22.10;70.90;;;;;;5073731;28;20055;-67
2022/09/11 07:28:40;;;;;;;12.55;6.28;;;22.10;70.90;;;;;;5075123;28;20048;-67
2022/09/11 07:31:09;;;;;;;11.88;5.88;;;22.10;70.90;;;;;;5103817;28;20059;-67
2022/09/11 07:33:35;;;;;;;10.20;5.03;;;22.10;70.90;;;;;;5115622;28;20020;-67
2022/09/11 07:36:10;;;;;;;9.55;5.72;;;22.10;70.90;;;;;;5114647;28;20032;-67
2022/09/11 07:38:37;;;;;;;10.80;5.47;;;22.10;70.90;;;;;;5115456;28;20028;-67
2022/09/11 07:41:03;;;;;;;13.63;5.57;;;22.10;70.90;;;;;;5115519;28;20061;-67
2022/09/11 07:43:30;;;;;;;11.55;5.97;;;22.10;70.90;;;;;;5115455;28;20027;-67
2022/09/11 07:45:55;;;;;;;12.07;6.45;;;22.10;71.00;;;;;;5115343;28;20051;-67
2022/09/11 07:48:21;;;;;;;12.23;5.40;;;22.10;71.00;;;;;;5115347;28;20071;-67
2022/09/11 07:51:03;;;;;;;16.77;5.88;;;22.10;71.00;;;;;;5114164;28;20015;-67
2022/09/11 07:53:37;;;;;;;15.00;5.95;;;22.10;71.00;;;;;;5114055;28;20016;-67
2022/09/11 07:56:04;;;;;;;11.50;5.63;;;22.10;72.00;;;;;;5097288;28;20051;-67
2022/09/11 07:58:33;;;;;;;12.43;5.32;;;22.10;71.00;;;;;;5115153;28;20055;-67
2022/09/11 08:01:01;;;;;;;10.70;5.05;;;22.10;71.10;;;;;;5097208;28;20024;-67
2022/09/11 08:03:27;;;;;;;12.50;5.80;;;22.10;71.10;;;;;;5113639;28;20023;-67
2022/09/11 08:05:56;;;;;;;9.13;4.72;;;22.10;71.10;;;;;;5112979;28;20081;-67
2022/09/11 08:08:22;;;;;;;10.57;5.32;;;22.10;71.10;;;;;;5114985;28;20020;-67
2022/09/11 08:10:48;;;;;;;11.25;5.70;;;22.10;71.10;;;;;;5114738;28;20028;-66
2022/09/11 08:13:13;;;;;;;11.57;5.40;;;22.00;71.10;;;;;;5114673;28;20372;-67
2022/09/11 08:15:46;;;;;;;9.25;5.45;;;22.10;71.10;;;;;;5111015;28;20019;-67
2022/09/11 08:18:12;;;;;;;11.70;5.50;;;22.10;71.20;;;;;;5073120;28;20499;-66
2022/09/11 08:20:38;;;;;;;9.60;4.68;;;22.10;71.20;;;;;;5074156;28;20025;-67
2022/09/11 08:23:03;;;;;;;9.13;5.07;;;22.10;71.20;;;;;;5073869;28;20237;-67
2022/09/11 08:25:29;;;;;;;10.00;5.60;;;22.10;71.20;;;;;;5073791;28;20025;-67
2022/09/11 08:27:55;;;;;;;8.65;5.03;;;22.10;71.20;;;;;;5074018;28;20048;-67
2022/09/11 08:30:21;;;;;;;8.70;5.13;;;22.10;71.20;;;;;;5091172;28;20054;-67
2022/09/11 08:32:46;;;;;;;9.77;5.10;;;22.10;71.20;;;;;;5114431;28;20053;-67
2022/09/11 08:35:12;;;;;;;12.00;5.43;;;22.10;71.20;;;;;;5114483;28;20507;-67
2022/09/11 08:37:39;;;;;;;9.27;5.22;;;22.10;71.20;;;;;;5114332;28;20027;-66
2022/09/11 08:40:06;;;;;;;9.75;5.28;;;22.10;71.30;;;;;;5114187;28;20038;-67
2022/09/11 08:42:32;;;;;;;9.38;5.05;;;22.10;71.20;;;;;;5112945;28;20058;-67
2022/09/11 08:44:58;;;;;;;8.25;4.82;;;22.10;71.30;;;;;;5112968;28;20031;-67
2022/09/11 08:47:24;;;;;;;9.95;5.05;;;22.10;71.20;;;;;;5096094;28;20514;-67
2022/09/11 08:50:11;;;;;;;9.27;4.45;;;22.10;71.30;;;;;;5113878;28;20039;-67
2022/09/11 08:52:42;;;;;;;9.95;5.05;;;22.10;71.20;;;;;;5096078;28;20122;-67
2022/09/11 08:55:12;;;;;;;8.85;4.95;;;22.10;71.30;;;;;;5096531;28;20020;-67
2022/09/11 08:57:54;;;;;;;8.30;4.88;;;22.10;71.30;;;;;;5112600;28;20737;-67
2022/09/11 09:00:21;;;;;;;10.25;5.30;;;22.10;71.30;;;;;;5112826;28;20459;-67
2022/09/11 09:03:12;;;;;;;10.13;5.10;;;22.10;71.30;;;;;;5112724;28;20015;-67
2022/09/11 09:05:49;;;;;;;9.35;4.75;;;22.10;71.30;;;;;;5113873;28;20027;-66
2022/09/11 09:08:56;;;;;;;12.90;5.30;;;22.10;71.40;;;;;;5113469;28;20070;-67
2022/09/11 09:11:27;;;;;;;11.82;4.80;;;22.10;71.30;;;;;;5031279;28;20437;-66
2022/09/11 09:14:23;;;;;;;8.17;4.20;;;22.10;71.30;;;;;;5029193;28;20053;-66
2022/09/11 09:16:52;;;;;;;7.43;3.72;;;22.10;71.00;;;;;;4999632;28;20046;-66
2022/09/11 09:19:31;;;;;;;7.47;3.90;;;22.10;70.90;;;;;;4991748;28;20499;-66
2022/09/11 09:22:04;;;;;;;5.38;3.45;;;22.10;71.60;;;;;;4991038;28;20045;-66
2022/09/11 09:24:38;;;;;;;7.13;3.67;;;22.10;70.50;;;;;;4991444;28;20045;-66
2022/09/11 09:27:04;;;;;;;7.90;3.67;;;22.00;70.30;;;;;;4991342;28;20084;-66
2022/09/11 09:29:34;;;;;;;7.25;3.90;;;22.00;70.20;;;;;;4993970;28;20497;-67
2022/09/11 09:32:03;;;;;;;6.50;3.75;;;22.00;70.20;;;;;;5030688;28;20563;-66
2022/09/11 09:34:30;;;;;;;5.30;3.55;;;22.00;70.10;;;;;;5010974;28;20359;-78
2022/09/11 09:36:55;;;;;;;5.38;3.20;;;22.00;70.00;;;;;;4997953;28;20022;-78
2022/09/11 09:39:22;;;;;;;4.88;2.70;;;22.20;69.20;;;;;;5010489;28;20030;-78
2022/09/11 09:42:03;;;;;;;2.92;2.00;;;22.40;68.10;;;;;;5017114;28;20399;-78
2022/09/11 09:44:45;;;;;;;3.58;2.28;;;22.40;67.60;;;;;;5088763;28;20024;-78
2022/09/11 09:47:14;;;;;;;4.35;2.58;;;22.50;67.40;;;;;;5092731;28;20499;-78
2022/09/11 09:49:39;;;;;;;4.15;2.35;;;22.50;67.00;;;;;;5074974;28;20052;-78
2022/09/11 09:52:30;;;;;;;3.85;2.10;;;22.50;66.90;;;;;;5091337;28;20023;-78
2022/09/11 09:55:00;;;;;;;4.93;2.63;;;22.60;66.70;;;;;;5074571;28;20052;-78
2022/09/11 09:57:30;;;;;;;3.35;2.30;;;22.60;66.70;;;;;;5091532;28;20540;-79
2022/09/11 10:00:04;;;;;;;3.67;2.28;;;22.70;66.60;;;;;;5091416;28;20020;-78
2022/09/11 10:02:56;;;;;;;4.20;2.30;;;22.70;66.40;;;;;;5091360;28;20077;-78
2022/09/11 10:05:40;;;;;;;2.83;1.90;;;22.70;66.30;;;;;;5076953;28;20495;-79
2022/09/11 10:08:25;;;;;;;3.53;2.20;;;22.80;66.20;;;;;;5091478;28;20108;-78
2022/09/11 10:11:02;;;;;;;3.80;2.33;;;22.80;67.00;;;;;;5071294;28;20504;-79
2022/09/11 10:13:37;;;;;;;2.53;1.90;;;22.90;65.90;;;;;;5071241;28;20107;-79
2022/09/11 10:16:04;;;;;;;5.78;2.20;;;22.90;65.80;;;;;;5076255;28;20027;-78
2022/09/11 10:18:36;;;;;;;5.15;2.10;;;22.90;65.70;;;;;;5091316;28;20537;-78
2022/09/11 10:21:11;;;;;;;4.03;2.25;;;23.00;65.70;;;;;;5092187;28;20047;-79
2022/09/11 10:24:08;;;;;;;3.17;2.10;;;23.00;65.50;;;;;;5092367;28;20024;-75
2022/09/11 10:26:38;;;;;;;2.42;1.80;;;23.00;65.50;;;;;;5029886;28;20033;-75
2022/09/11 10:29:12;;;;;;;3.80;1.90;;;23.00;65.40;;;;;;5017120;28;20104;-75
2022/09/11 10:31:38;;;;;;;3.22;1.85;;;23.00;65.40;;;;;;5053047;28;20072;-75
2022/09/11 10:34:04;;;;;;;3.00;2.00;;;23.00;65.40;;;;;;5037367;28;20036;-75
2022/09/11 10:36:30;;;;;;;3.28;2.03;;;23.10;65.20;;;;;;5053814;28;20029;-75
2022/09/11 10:38:57;;;;;;;2.95;1.83;;;23.10;65.20;;;;;;5037104;28;20032;-76
2022/09/11 10:41:26;;;;;;;2.20;1.63;;;23.10;65.10;;;;;;5054293;28;20039;-76
2022/09/11 10:43:55;;;;;;;2.10;1.80;;;23.10;65.00;;;;;;5020697;28;20045;-76
2022/09/11 10:46:32;;;;;;;3.60;2.22;;;23.10;65.00;;;;;;5014241;28;20072;-76
2022/09/11 10:49:14;;;;;;;2.05;1.60;;;23.10;64.90;;;;;;4997300;28;20394;-76
2022/09/11 10:51:40;;;;;;;2.65;1.90;;;23.10;65.00;;;;;;5014045;28;20033;-73
2022/09/11 10:54:15;;;;;;;2.70;1.88;;;23.20;65.00;;;;;;4997536;28;20037;-75
2022/09/11 10:56:53;;;;;;;3.90;1.80;;;23.20;65.00;;;;;;4997579;28;20448;-75
2022/09/11 10:59:21;;;;;;;3.20;1.92;;;23.20;64.70;;;;;;5013412;28;20042;-75
2022/09/11 11:01:48;;;;;;;2.47;1.65;;;23.20;64.70;;;;;;5010764;28;20104;-74
2022/09/11 11:04:14;;;;;;;4.63;1.90;;;23.30;64.60;;;;;;5089218;28;20170;-74
2022/09/11 11:07:08;;;;;;;1.70;1.60;;;23.30;64.60;;;;;;5094765;28;20078;-75
2022/09/11 11:09:49;;;;;;;2.42;1.67;;;23.30;64.60;;;;;;5080767;28;20024;-75
2022/09/11 11:12:39;;;;;;;2.03;1.60;;;23.30;64.50;;;;;;5074461;28;20025;-74
2022/09/11 11:15:27;;;;;;;2.38;1.90;;;23.30;64.50;;;;;;5058449;28;20021;-75
2022/09/11 11:18:10;;;;;;;3.65;2.03;;;23.30;64.50;;;;;;5059376;28;20037;-74
2022/09/11 11:20:47;;;;;;;2.50;1.67;;;23.30;64.50;;;;;;5074161;28;20048;-74
2022/09/11 11:23:30;;;;;;;3.17;1.88;;;23.40;64.50;;;;;;5073540;28;20024;-74
2022/09/11 11:26:14;;;;;;;2.85;2.00;;;23.40;64.40;;;;;;5094208;28;20028;-72
2022/09/11 11:29:00;;;;;;;2.05;1.65;;;23.40;64.40;;;;;;5095619;28;20024;-74
2022/09/11 11:32:03;;;;;;;4.25;2.05;;;23.50;64.50;;;;;;5105559;28;20465;-73
2022/09/11 11:34:45;;;;;;;3.40;1.90;;;23.50;64.40;;;;;;5115551;28;20019;-74
2022/09/11 11:37:24;;;;;;;2.45;1.60;;;23.50;64.40;;;;;;5114450;28;20027;-75
2022/09/11 11:39:56;;;;;;;1.90;1.40;;;23.50;64.50;;;;;;5113933;28;20016;-75
2022/09/11 11:42:22;;;;;;;;;;;23.50;64.50;;;;;;5114123;28;20506;-75
2022/09/11 11:44:57;;;;;;;1.95;1.48;;;23.50;64.30;;;;;;5095040;28;19946;-74
2022/09/11 11:47:25;;;;;;;2.35;1.52;;;23.50;64.30;;;;;;5077201;28;20024;-75
2022/09/11 11:50:09;;;;;;;2.72;1.55;;;23.50;64.20;;;;;;5093586;28;20040;-75
2022/09/11 11:53:02;;;;;;;2.58;1.77;;;23.50;64.30;;;;;;5079093;28;20118;-75
2022/09/11 11:55:39;;;;;;;2.17;1.40;;;23.50;64.20;;;;;;5093232;28;20032;-75
2022/09/11 11:58:35;;;;;;;2.20;1.60;;;23.50;64.20;;;;;;5093780;28;20016;-75
2022/09/11 12:01:02;;;;;;;1.85;1.20;;;23.50;64.20;;;;;;5094821;28;20032;-75
2022/09/11 12:03:51;;;;;;;2.63;1.52;;;23.60;64.10;;;;;;5076947;28;20474;-76
2022/09/11 12:06:17;;;;;;;1.77;1.50;;;23.60;64.10;;;;;;5093441;28;20035;-78
2022/09/11 12:08:46;;;;;;;1.60;1.27;;;23.60;64.10;;;;;;5093537;28;20099;-79
2022/09/11 12:11:16;;;;;;;3.45;1.80;;;23.60;64.10;;;;;;5076495;28;20050;-75
2022/09/11 12:13:43;;;;;;;3.45;1.30;;;23.60;64.10;;;;;;5077095;28;20020;-75
2022/09/11 12:16:30;;;;;;;1.75;1.33;;;23.60;64.20;;;;;;5070364;28;20024;-73
2022/09/11 12:19:18;;;;;;;3.63;1.60;;;23.50;64.10;;;;;;5072999;28;20090;-74
2022/09/11 12:21:53;;;;;;;1.88;1.48;;;23.60;64.10;;;;;;5072976;28;20068;-74
2022/09/11 12:24:21;;;;;;;2.78;1.77;;;23.60;64.10;;;;;;5074072;28;20027;-75
2022/09/11 12:26:47;;;;;;;2.58;1.92;;;23.60;64.10;;;;;;5072702;28;20515;-74
2022/09/11 12:29:17;;;;;;;2.40;1.42;;;23.60;64.20;;;;;;5072834;28;20068;-75
2022/09/11 12:31:49;;;;;;;2.53;1.63;;;23.60;64.20;;;;;;5113753;28;20107;-74
2022/09/11 12:34:25;;;;;;;1.70;1.42;;;23.60;64.20;;;;;;5114467;28;20023;-75
2022/09/11 12:36:52;;;;;;;1.58;1.27;;;23.60;64.20;;;;;;5097159;28;20038;-74
2022/09/11 12:39:33;;;;;;;2.60;1.20;;;23.60;64.20;;;;;;5114586;28;20020;-75
2022/09/11 12:42:24;;;;;;;2.10;1.40;;;23.60;64.10;;;;;;5113268;28;20518;-75
2022/09/11 12:44:50;;;;;;;2.75;1.60;;;23.60;64.10;;;;;;5073709;28;20095;-75
2022/09/11 12:47:26;;;;;;;2.28;1.63;;;23.60;64.10;;;;;;5073384;28;20130;-75
2022/09/11 12:50:05;;;;;;;2.20;1.60;;;23.60;64.10;;;;;;5071912;28;20055;-73
2022/09/11 12:52:41;;;;;;;3.10;1.40;;;23.70;64.00;;;;;;5072393;28;20021;-74
2022/09/11 12:55:25;;;;;;;2.38;1.60;;;23.70;65.00;;;;;;5073463;28;20434;-75
2022/09/11 12:57:51;;;;;;;2.13;1.40;;;23.70;64.00;;;;;;5072471;28;20033;-74